Aérodrome :
LOGIN :

S'inscrire | Disclaimer

   EN    FR    IT 

 










Légende :    VFR   VFR Marginal   IFR   IFR Intensif   IFR Très Intensif
Visi : 
Plafond : 
>= 8 km
>= 3000ft
5 à 8 km
1000 à 3000 ft
1500m à 5 km
500 à 1000 ft
800 à 1500m
200 à 500 ft
< 800m
< 200 ft
Symboles :   Orages  Brouillard  Fortes neiges  Fortes précipitations  Vent > 20 kt
SIGMETs :   Divers  Orages  Givrage  Turbulence  Onde Orograph.  Cendres Volcan.







- Altitude de l'aérodrome : 16 ft
- Code IATA : AAE


DABB - Annaba-Rabah Bitat

DERNIER METAR :
  • 222000Z 26009KT 9999 FEW020 FEW026CB BKN030 07/06 Q1003

METARs EXPIRÉS :
  • 221930Z 27009KT 9999 FEW020 FEW026CB BKN030 07/06 Q1003
  • 221900Z 25010KT 9999 FEW020 FEW026CB BKN030 08/07 Q1003
  • 221830Z 26010KT 9000 FEW020 FEW026CB BKN030 08/07 Q1002
  • 221800Z 24004KT 200V270 8000 -RA FEW020 FEW026CB BKN030 08/06 Q1003
  • 221730Z 28011KT 8000 -RA FEW020 FEW026CB BKN030 08/06 Q1002

TAF TAF DABB
Valide du 22 à 18h jusqu'au 23 à 18h UTC


221700Z 2218/2318 30014KT 6000 -RA FEW010 BKN023
PROB30
TEMPO 2218/2306 32020G30KT 3000 TSRAGR FEW015CB
Pas de NOTAMs connus pour ce terrain.
1 SIGMET publié pour la FIR Alger (DAAA) :
 
Orages noyés dans la masse
DAAA SIGMET 4 VALID 221700/222100 DAMM
DAAA ALGER FIR EMBD TS OBS N OF LINE N3646 E00820 - N3642 E00020 TOP FL220 MOV SE 20KT WKN=



MET'MAP, la Météo Aéronautique d'un coup d'oeil ! - Copyright ORBIFLY Décembre 2007 - Disclaimer

ORBIFLY MET'MAP TEAM :

Programmation & Développement : Alexandra Zaïnal
Conception & Développement : Baudouin d'Aumeries
Co-Programmation & Développement : Marc-Olivier Méhu
Soutien technique & logistique : Manuel Goepfert

Contact : metmap@orbifly.com




SOURCES & CREDITS :

   NOAA